Time;durP1;ratioP1;P1;durP2;ratioP2;P2;SDS_P1;SDS_P2;PMS_P1;PMS_P2;Temp;Humidity;BMP_temperature;BMP_pressure;BME280_temperature;BME280_humidity;BME280_pressure;Samples;Min_cycle;Max_cycle;Signal;HPM_P1;HPM_P2
2023/05/12 00:00:37;;;;;;;13.80;6.40;;;;;;;;;;110666;1275;22359;-75
2023/05/12 00:03:16;;;;;;;15.70;6.80;;;;;;;;;;110451;1275;23085;-75
2023/05/12 00:05:43;;;;;;;25.60;9.60;;;;;;;;;;110753;1259;23239;-75
2023/05/12 00:08:11;;;;;;;31.10;11.00;;;;;;;;;;110474;1276;22313;-75
2023/05/12 00:10:39;;;;;;;30.60;12.40;;;;;;;;;;110640;1276;22402;-75
2023/05/12 00:13:07;;;;;;;34.10;11.90;;;;;;;;;;110446;1276;22163;-75
2023/05/12 00:15:35;;;;;;;25.60;9.00;;;;;;;;;;110926;1256;22418;-76
2023/05/12 00:18:02;;;;;;;22.40;8.60;;;;;;;;;;110501;1275;23234;-75
2023/05/12 00:20:30;;;;;;;22.50;9.00;;;;;;;;;;110604;1275;22891;-75
2023/05/12 00:22:58;;;;;;;15.80;6.30;;;;;;;;;;110661;1275;22078;-75
2023/05/12 00:25:25;;;;;;;17.20;6.10;;;;;;;;;;110878;1257;22039;-75
2023/05/12 00:27:53;;;;;;;14.40;5.90;;;;;;;;;;110620;1276;22577;-75
2023/05/12 00:30:20;;;;;;;12.30;5.60;;;;;;;;;;110330;1276;22082;-75
2023/05/12 00:32:48;;;;;;;15.20;5.20;;;;;;;;;;110637;1276;22809;-82
2023/05/12 00:35:16;;;;;;;11.90;4.90;;;;;;;;;;110625;1256;22143;-75
2023/05/12 00:37:44;;;;;;;10.80;4.70;;;;;;;;;;110605;1275;22103;-75
2023/05/12 00:40:13;;;;;;;12.70;4.90;;;;;;;;;;110603;1275;22103;-75
2023/05/12 00:42:42;;;;;;;10.90;5.40;;;;;;;;;;110596;1276;22073;-75
2023/05/12 00:45:10;;;;;;;9.90;4.20;;;;;;;;;;110617;1257;22607;-75
2023/05/12 00:47:39;;;;;;;11.80;4.90;;;;;;;;;;110310;1276;22196;-76
2023/05/12 00:50:08;;;;;;;10.80;4.60;;;;;;;;;;110326;1276;22120;-75
2023/05/12 00:52:37;;;;;;;9.40;3.90;;;;;;;;;;110489;1276;22122;-75
2023/05/12 00:55:06;;;;;;;10.30;4.30;;;;;;;;;;110386;1260;22174;-75
2023/05/12 00:57:36;;;;;;;10.20;4.40;;;;;;;;;;110608;1275;23238;-75
2023/05/12 01:00:06;;;;;;;10.10;4.40;;;;;;;;;;110624;1275;22987;-75
2023/05/12 01:02:35;;;;;;;9.20;4.50;;;;;;;;;;110496;1275;22765;-75
2023/05/12 01:05:05;;;;;;;10.40;4.40;;;;;;;;;;110652;1257;22062;-75
2023/05/12 01:07:35;;;;;;;10.50;4.40;;;;;;;;;;110465;1276;22515;-75
2023/05/12 01:10:04;;;;;;;12.60;4.50;;;;;;;;;;110570;1276;22077;-75
2023/05/12 01:12:37;;;;;;;9.50;4.40;;;;;;;;;;110344;1275;22856;-75
2023/05/12 01:15:06;;;;;;;9.40;4.20;;;;;;;;;;110533;1251;22709;-75
2023/05/12 01:17:37;;;;;;;9.30;4.50;;;;;;;;;;110655;1275;22453;-75
2023/05/12 01:20:08;;;;;;;10.30;4.30;;;;;;;;;;110661;1275;22568;-75
2023/05/12 01:22:39;;;;;;;10.60;4.50;;;;;;;;;;110656;1275;22403;-75
2023/05/12 01:25:10;;;;;;;8.30;4.20;;;;;;;;;;110684;1254;22828;-75
2023/05/12 01:27:41;;;;;;;10.30;4.60;;;;;;;;;;110226;1275;22136;-75
2023/05/12 01:30:11;;;;;;;9.90;4.60;;;;;;;;;;110500;1275;22100;-75
2023/05/12 01:32:42;;;;;;;9.30;4.40;;;;;;;;;;110354;1276;22217;-75
2023/05/12 01:35:11;;;;;;;11.10;4.90;;;;;;;;;;110482;1254;22350;-75
2023/05/12 01:37:46;;;;;;;9.50;4.20;;;;;;;;;;110516;1275;22006;-76
2023/05/12 01:47:14;;;;;;;11.70;5.40;;;;;;;;;;104799;1286;545227;-82
2023/05/12 01:49:46;;;;;;;13.00;5.10;;;;;;;;;;106461;1284;25329;-77
2023/05/12 01:52:19;;;;;;;13.60;5.90;;;;;;;;;;106418;1284;25336;-79
2023/05/12 01:54:48;;;;;;;14.60;5.60;;;;;;;;;;106428;1284;25306;-77
2023/05/12 01:57:38;;;;;;;17.40;6.50;;;;;;;;;;106364;1267;23800;-80
2023/05/12 02:00:18;;;;;;;12.70;6.10;;;;;;;;;;104251;1283;2958954;-79
2023/05/12 02:02:46;;;;;;;14.50;6.50;;;;;;;;;;106472;1283;22540;-83
2023/05/12 02:05:13;;;;;;;15.50;6.00;;;;;;;;;;106383;1283;22508;-83
2023/05/12 02:07:49;;;;;;;15.50;6.20;;;;;;;;;;106405;1282;25325;-79
2023/05/12 02:10:29;;;;;;;13.60;6.30;;;;;;;;;;106666;1282;22860;-81
2023/05/12 02:13:03;;;;;;;16.10;7.10;;;;;;;;;;106368;1280;24288;-76
2023/05/12 02:15:33;;;;;;;14.80;6.90;;;;;;;;;;106665;1282;25326;-80
2023/05/12 02:18:04;;;;;;;14.50;6.70;;;;;;;;;;106553;1260;25300;-79
2023/05/12 02:20:33;;;;;;;15.60;7.90;;;;;;;;;;106445;1283;25353;-79
2023/05/12 02:23:02;;;;;;;18.90;7.80;;;;;;;;;;106478;1283;22529;-78
2023/05/12 02:25:42;;;;;;;19.80;8.60;;;;;;;;;;106393;1283;24093;-79
2023/05/12 02:28:12;;;;;;;15.30;7.20;;;;;;;;;;106432;1266;23142;-79
2023/05/12 02:30:47;;;;;;;15.80;6.60;;;;;;;;;;106446;1279;22668;-75
2023/05/12 02:33:35;;;;;;;15.80;6.90;;;;;;;;;;106384;1284;22530;-79
2023/05/12 02:36:04;;;;;;;18.80;7.40;;;;;;;;;;106365;1284;22527;-81
2023/05/12 02:38:39;;;;;;;13.00;6.60;;;;;;;;;;106350;1268;25278;-79
2023/05/12 02:41:26;;;;;;;17.10;7.30;;;;;;;;;;106266;1286;22533;-79
2023/05/12 02:44:01;;;;;;;13.90;6.60;;;;;;;;;;106244;1286;22536;-79
2023/05/12 02:46:31;;;;;;;12.90;6.50;;;;;;;;;;106024;1287;22537;-76
2023/05/12 02:49:18;;;;;;;13.90;6.10;;;;;;;;;;106237;1277;22544;-76
2023/05/12 02:51:51;;;;;;;12.70;6.30;;;;;;;;;;106389;1286;24199;-81
2023/05/12 02:54:17;;;;;;;14.60;7.30;;;;;;;;;;106365;1286;22561;-82
2023/05/12 02:56:47;;;;;;;15.20;6.50;;;;;;;;;;106844;1278;24287;-77
2023/05/12 02:59:17;;;;;;;16.20;5.60;;;;;;;;;;106753;1260;22530;-82
2023/05/12 03:01:57;;;;;;;;;;;;;;;;;;;;;
2023/05/12 03:04:26;;;;;;;13.80;6.50;;;;;;;;;;106826;1278;24368;-75
2023/05/12 03:07:14;;;;;;;17.50;5.80;;;;;;;;;;106752;1278;25346;-79
2023/05/12 03:09:43;;;;;;;11.20;5.40;;;;;;;;;;106697;1260;26282;-79
2023/05/12 03:12:10;;;;;;;14.30;6.50;;;;;;;;;;106828;1277;22592;-79
2023/05/12 03:14:43;;;;;;;15.10;6.30;;;;;;;;;;106856;1277;24226;-80
2023/05/12 03:17:13;;;;;;;16.00;5.90;;;;;;;;;;106863;1277;22676;-80
2023/05/12 03:20:06;;;;;;;17.90;6.20;;;;;;;;;;106794;1278;25449;-77
2023/05/12 03:22:51;;;;;;;17.20;6.10;;;;;;;;;;106852;1278;23862;-80
2023/05/12 03:25:39;;;;;;;15.50;6.10;;;;;;;;;;106795;1278;22536;-77
2023/05/12 03:28:24;;;;;;;;;;;;;;;;;;;;;
2023/05/12 03:31:12;;;;;;;14.80;6.20;;;;;;;;;;106833;1277;22649;-79
2023/05/12 03:34:02;;;;;;;16.70;6.00;;;;;;;;;;106851;1277;22577;-77
2023/05/12 03:36:49;;;;;;;12.90;6.40;;;;;;;;;;106892;1277;22745;-77
2023/05/12 03:39:21;;;;;;;13.10;6.30;;;;;;;;;;106671;1278;22587;-76
2023/05/12 03:41:51;;;;;;;14.30;5.60;;;;;;;;;;106495;1278;22534;-76
2023/05/12 03:44:21;;;;;;;14.90;6.60;;;;;;;;;;106534;1278;22534;-82
2023/05/12 03:46:57;;;;;;;13.90;5.90;;;;;;;;;;106802;1277;24210;-81
2023/05/12 03:49:52;;;;;;;;;;;;;;;;;;;;;
2023/05/12 03:52:40;;;;;;;14.70;6.30;;;;;;;;;;106801;1279;25265;-76
2023/05/12 03:55:30;;;;;;;11.90;5.60;;;;;;;;;;106796;1279;23608;-82
2023/05/12 03:57:57;;;;;;;13.70;5.50;;;;;;;;;;106801;1279;22530;-75
2023/05/12 04:00:27;;;;;;;12.30;6.00;;;;;;;;;;106810;1258;22632;-76
2023/05/12 04:03:17;;;;;;;16.00;6.50;;;;;;;;;;106783;1278;22529;-78
2023/05/12 04:06:04;;;;;;;15.00;6.90;;;;;;;;;;106810;1278;24226;-80
2023/05/12 04:08:33;;;;;;;15.20;6.40;;;;;;;;;;106807;1278;22606;-75
2023/05/12 04:11:03;;;;;;;15.80;6.50;;;;;;;;;;106717;1263;22531;-78
2023/05/12 04:13:35;;;;;;;15.20;6.30;;;;;;;;;;106722;1279;22554;-82
2023/05/12 04:16:02;;;;;;;14.40;6.60;;;;;;;;;;106727;1279;24194;-80
2023/05/12 04:18:52;;;;;;;14.00;6.80;;;;;;;;;;106791;1270;24825;-80
2023/05/12 04:21:22;;;;;;;16.30;6.50;;;;;;;;;;106842;1276;25328;-77
2023/05/12 04:23:55;;;;;;;14.80;7.10;;;;;;;;;;106814;1277;22649;-82
2023/05/12 04:26:25;;;;;;;15.90;7.10;;;;;;;;;;106869;1277;24228;-77
2023/05/12 04:29:14;;;;;;;16.20;7.00;;;;;;;;;;106878;1277;24240;-82
2023/05/12 04:31:47;;;;;;;13.10;5.90;;;;;;;;;;106799;1260;24361;-76
2023/05/12 04:34:38;;;;;;;14.80;6.60;;;;;;;;;;106725;1278;24179;-80
2023/05/12 04:37:10;;;;;;;15.90;6.60;;;;;;;;;;106790;1278;22532;-80
2023/05/12 04:39:37;;;;;;;14.80;5.70;;;;;;;;;;106778;1278;24272;-75
2023/05/12 04:42:04;;;;;;;19.30;6.30;;;;;;;;;;106855;1267;25315;-77
2023/05/12 04:44:33;;;;;;;13.50;6.20;;;;;;;;;;106855;1277;22601;-80
2023/05/12 04:47:30;;;;;;;;;;;;;;;;;;;;;
2023/05/12 04:50:10;;;;;;;13.80;5.90;;;;;;;;;;106763;1254;25478;-80
2023/05/12 04:52:37;;;;;;;15.30;5.90;;;;;;;;;;106818;1278;22599;-78
2023/05/12 04:55:05;;;;;;;16.50;6.30;;;;;;;;;;106730;1278;22648;-81
2023/05/12 04:57:40;;;;;;;10.90;5.70;;;;;;;;;;106816;1278;25341;-80
2023/05/12 05:00:11;;;;;;;13.00;6.00;;;;;;;;;;106717;1277;24247;-80
2023/05/12 05:02:43;;;;;;;14.70;6.30;;;;;;;;;;106834;1277;24185;-81
2023/05/12 05:05:13;;;;;;;13.80;6.70;;;;;;;;;;106884;1277;22527;-79
2023/05/12 05:07:43;;;;;;;12.30;5.90;;;;;;;;;;106791;1277;24242;-82
2023/05/12 05:10:51;;;;;;;13.40;6.00;;;;;;;;;;106514;1260;22784;-76
2023/05/12 05:13:27;;;;;;;13.20;5.90;;;;;;;;;;106503;1257;22545;-75
2023/05/12 05:15:55;;;;;;;13.20;6.40;;;;;;;;;;106342;1275;22647;-76
2023/05/12 05:18:23;;;;;;;14.00;6.50;;;;;;;;;;106555;1277;26544;-76
2023/05/12 05:20:50;;;;;;;23.30;7.20;;;;;;;;;;106405;1260;23816;-75
2023/05/12 05:23:37;;;;;;;15.90;6.60;;;;;;;;;;106589;1273;25340;-75
2023/05/12 05:26:06;;;;;;;14.20;6.70;;;;;;;;;;106695;1272;23093;-83
2023/05/12 05:28:33;;;;;;;13.60;6.90;;;;;;;;;;106656;1280;22533;-78
2023/05/12 05:31:00;;;;;;;15.00;7.20;;;;;;;;;;106621;1258;22647;-78
2023/05/12 05:33:47;;;;;;;16.80;6.90;;;;;;;;;;106433;1280;25358;-75
2023/05/12 05:36:35;;;;;;;13.70;6.20;;;;;;;;;;106551;1280;24218;-75
2023/05/12 05:39:11;;;;;;;13.50;7.20;;;;;;;;;;106464;1280;25580;-79
2023/05/12 05:41:57;;;;;;;;;;;;;;;;;;;;;
2023/05/12 05:44:27;;;;;;;13.60;6.80;;;;;;;;;;106824;1270;22621;-77
2023/05/12 05:47:06;;;;;;;15.90;6.90;;;;;;;;;;106842;1276;22610;-82
2023/05/12 05:49:43;;;;;;;13.70;6.70;;;;;;;;;;106849;1276;25325;-79
2023/05/12 05:52:10;;;;;;;16.70;6.80;;;;;;;;;;106879;1254;22520;-79
2023/05/12 05:54:37;;;;;;;12.40;6.30;;;;;;;;;;106842;1275;22733;-82
2023/05/12 05:57:04;;;;;;;11.60;6.60;;;;;;;;;;106929;1277;23117;-77
2023/05/12 05:59:34;;;;;;;12.40;6.60;;;;;;;;;;106723;1275;22501;-77
2023/05/12 06:02:01;;;;;;;12.30;6.30;;;;;;;;;;106944;1256;25415;-80
2023/05/12 06:04:28;;;;;;;13.90;6.90;;;;;;;;;;106853;1274;22520;-78
2023/05/12 06:06:55;;;;;;;11.10;6.20;;;;;;;;;;107152;1274;25220;-82
2023/05/12 06:09:22;;;;;;;12.40;6.10;;;;;;;;;;107146;1254;22521;-75
2023/05/12 06:11:49;;;;;;;13.20;6.50;;;;;;;;;;107125;1274;22639;-82
2023/05/12 06:14:16;;;;;;;12.40;6.10;;;;;;;;;;107144;1274;25315;-80
2023/05/12 06:16:53;;;;;;;13.30;6.10;;;;;;;;;;107115;1274;22520;-79
2023/05/12 06:19:20;;;;;;;13.20;6.40;;;;;;;;;;107154;1274;22639;-83
2023/05/12 06:21:46;;;;;;;13.10;6.40;;;;;;;;;;107008;1251;22527;-80
2023/05/12 06:24:16;;;;;;;13.30;6.10;;;;;;;;;;106873;1274;25249;-76
2023/05/12 06:26:42;;;;;;;12.40;5.80;;;;;;;;;;107117;1275;22617;-83
2023/05/12 06:29:09;;;;;;;10.10;6.00;;;;;;;;;;106879;1275;22529;-83
2023/05/12 06:31:36;;;;;;;11.90;6.20;;;;;;;;;;106888;1275;22528;-83
2023/05/12 06:34:03;;;;;;;13.50;6.30;;;;;;;;;;107048;1256;22959;-80
2023/05/12 06:36:30;;;;;;;13.40;5.90;;;;;;;;;;107096;1262;22640;-76
2023/05/12 06:38:57;;;;;;;12.10;6.30;;;;;;;;;;107097;1274;24192;-79
2023/05/12 06:41:24;;;;;;;12.10;6.90;;;;;;;;;;106955;1273;22643;-81
2023/05/12 06:43:51;;;;;;;14.30;7.10;;;;;;;;;;106909;1262;22637;-77
2023/05/12 06:46:20;;;;;;;14.80;7.80;;;;;;;;;;107198;1251;24218;-83
2023/05/12 06:48:56;;;;;;;16.40;7.50;;;;;;;;;;106930;1274;22647;-82
2023/05/12 06:51:23;;;;;;;15.30;6.90;;;;;;;;;;106939;1275;23033;-81
2023/05/12 06:53:50;;;;;;;15.70;8.20;;;;;;;;;;107101;1255;22683;-79
2023/05/12 06:56:16;;;;;;;14.80;8.00;;;;;;;;;;107105;1274;22766;-82
2023/05/12 06:58:47;;;;;;;17.10;7.60;;;;;;;;;;107046;1274;24196;-78
2023/05/12 07:01:13;;;;;;;15.40;7.20;;;;;;;;;;107088;1274;22566;-83
2023/05/12 07:03:40;;;;;;;12.90;7.70;;;;;;;;;;106877;1275;24199;-75
2023/05/12 07:06:09;;;;;;;13.40;7.30;;;;;;;;;;107065;1274;26484;-78
2023/05/12 07:08:36;;;;;;;13.50;7.00;;;;;;;;;;106895;1267;23121;-81
2023/05/12 07:11:03;;;;;;;11.40;6.40;;;;;;;;;;107130;1274;22656;-81
2023/05/12 07:13:30;;;;;;;10.90;5.80;;;;;;;;;;106992;1255;22487;-76
2023/05/12 07:15:57;;;;;;;13.70;6.40;;;;;;;;;;106955;1270;22612;-83
2023/05/12 07:18:23;;;;;;;10.10;5.70;;;;;;;;;;107027;1252;22573;-76
2023/05/12 07:20:50;;;;;;;11.70;5.50;;;;;;;;;;107080;1274;25339;-78
2023/05/12 07:23:17;;;;;;;10.40;5.80;;;;;;;;;;107125;1256;22744;-81
2023/05/12 07:25:43;;;;;;;13.90;6.30;;;;;;;;;;107045;1267;22573;-76
2023/05/12 07:28:10;;;;;;;14.10;6.40;;;;;;;;;;107135;1275;22520;-77
2023/05/12 07:30:37;;;;;;;13.60;5.60;;;;;;;;;;106814;1275;22643;-78
2023/05/12 07:33:04;;;;;;;14.60;5.60;;;;;;;;;;107074;1262;22540;-79
2023/05/12 07:35:31;;;;;;;12.10;6.20;;;;;;;;;;106978;1274;25268;-77
2023/05/12 07:37:58;;;;;;;13.60;6.60;;;;;;;;;;107098;1274;21997;-83
2023/05/12 07:40:24;;;;;;;15.10;7.60;;;;;;;;;;107033;1274;22523;-76
2023/05/12 07:42:51;;;;;;;13.30;6.20;;;;;;;;;;109297;1273;22424;-76
2023/05/12 07:45:21;;;;;;;15.50;6.60;;;;;;;;;;109977;1259;22531;-76
2023/05/12 07:47:49;;;;;;;13.80;6.70;;;;;;;;;;107117;1267;22841;-76
2023/05/12 07:50:20;;;;;;;13.00;6.70;;;;;;;;;;107211;1267;22634;-79
2023/05/12 07:52:47;;;;;;;12.00;5.60;;;;;;;;;;107086;1265;22652;-77
2023/05/12 07:55:14;;;;;;;13.50;6.70;;;;;;;;;;107203;1266;22517;-79
2023/05/12 07:57:41;;;;;;;12.70;6.70;;;;;;;;;;107162;1266;22599;-79
2023/05/12 08:00:09;;;;;;;12.20;6.80;;;;;;;;;;107045;1274;25566;-77
2023/05/12 08:02:42;;;;;;;12.50;6.80;;;;;;;;;;107129;1274;22752;-79
2023/05/12 08:05:09;;;;;;;14.10;6.50;;;;;;;;;;106921;1258;23427;-82
2023/05/12 08:07:37;;;;;;;11.10;6.80;;;;;;;;;;106980;1275;25347;-81
2023/05/12 08:10:05;;;;;;;14.50;7.00;;;;;;;;;;107093;1275;22521;-78
2023/05/12 08:12:32;;;;;;;14.70;6.70;;;;;;;;;;106860;1275;25450;-80
2023/05/12 08:14:59;;;;;;;13.80;6.80;;;;;;;;;;106949;1256;24534;-77
2023/05/12 08:17:26;;;;;;;13.20;7.00;;;;;;;;;;107040;1274;22520;-84
2023/05/12 08:19:53;;;;;;;11.20;6.50;;;;;;;;;;107007;1274;25265;-79
2023/05/12 08:22:20;;;;;;;13.70;7.60;;;;;;;;;;107127;1274;24238;-83
2023/05/12 08:24:46;;;;;;;13.10;6.70;;;;;;;;;;107019;1275;25215;-80
2023/05/12 08:27:13;;;;;;;17.10;7.10;;;;;;;;;;107109;1275;22479;-82
2023/05/12 08:29:43;;;;;;;11.20;6.50;;;;;;;;;;107138;1274;22541;-83
2023/05/12 08:32:10;;;;;;;14.70;6.80;;;;;;;;;;107124;1274;22737;-79
2023/05/12 08:34:37;;;;;;;16.40;7.40;;;;;;;;;;106886;1251;22563;-75
2023/05/12 08:37:05;;;;;;;14.40;6.40;;;;;;;;;;106921;1274;22525;-82
2023/05/12 08:39:32;;;;;;;12.20;7.00;;;;;;;;;;106819;1274;22658;-78
2023/05/12 08:42:02;;;;;;;14.50;7.00;;;;;;;;;;107000;1274;22630;-83
2023/05/12 08:44:30;;;;;;;13.20;6.40;;;;;;;;;;107046;1254;22773;-79
2023/05/12 08:46:57;;;;;;;12.50;6.20;;;;;;;;;;106901;1275;23899;-81
2023/05/12 08:49:25;;;;;;;14.20;6.30;;;;;;;;;;106885;1253;25435;-81
2023/05/12 08:51:55;;;;;;;13.90;6.10;;;;;;;;;;107096;1275;25156;-79
2023/05/12 08:54:22;;;;;;;14.60;6.30;;;;;;;;;;107106;1274;22536;-79
2023/05/12 08:56:50;;;;;;;14.20;6.50;;;;;;;;;;107001;1258;23265;-81
2023/05/12 08:59:17;;;;;;;12.00;5.80;;;;;;;;;;107003;1274;22516;-83
2023/05/12 09:01:46;;;;;;;19.80;6.30;;;;;;;;;;107059;1251;22527;-75
2023/05/12 09:04:16;;;;;;;11.60;5.90;;;;;;;;;;107074;1268;25535;-75
2023/05/12 09:06:43;;;;;;;10.90;5.30;;;;;;;;;;106835;1268;24042;-76
2023/05/12 09:09:11;;;;;;;11.80;6.20;;;;;;;;;;106790;1275;25301;-78
2023/05/12 09:11:40;;;;;;;15.10;6.80;;;;;;;;;;107008;1275;22528;-77
2023/05/12 09:14:07;;;;;;;10.20;5.60;;;;;;;;;;107087;1274;25353;-81
2023/05/12 09:16:54;;;;;;;11.90;5.50;;;;;;;;;;107026;1256;24222;-77
2023/05/12 09:19:22;;;;;;;11.30;5.80;;;;;;;;;;107182;1274;22999;-77
2023/05/12 09:21:48;;;;;;;12.40;5.70;;;;;;;;;;107112;1267;22669;-78
2023/05/12 09:24:30;;;;;;;10.10;5.40;;;;;;;;;;107224;1274;22532;-76
2023/05/12 09:27:17;;;;;;;10.90;5.30;;;;;;;;;;107195;1255;25277;-77
2023/05/12 09:29:48;;;;;;;9.20;5.00;;;;;;;;;;106936;1274;22545;-80
2023/05/12 09:32:15;;;;;;;12.40;4.90;;;;;;;;;;107176;1274;22534;-79
2023/05/12 09:34:42;;;;;;;10.00;5.40;;;;;;;;;;107109;1274;22529;-77
2023/05/12 09:37:09;;;;;;;10.40;5.00;;;;;;;;;;107069;1267;23038;-77
2023/05/12 09:39:36;;;;;;;9.50;4.80;;;;;;;;;;107116;1274;24196;-76
2023/05/12 09:42:23;;;;;;;12.90;4.70;;;;;;;;;;106969;1274;22492;-78
2023/05/12 09:44:52;;;;;;;9.90;4.50;;;;;;;;;;107163;1250;25383;-77
2023/05/12 09:47:19;;;;;;;12.20;5.20;;;;;;;;;;107041;1256;22569;-83
2023/05/12 09:49:50;;;;;;;10.90;4.80;;;;;;;;;;107042;1275;22575;-84
2023/05/12 09:52:19;;;;;;;10.80;4.30;;;;;;;;;;107211;1275;25432;-80
2023/05/12 09:54:58;;;;;;;12.30;4.90;;;;;;;;;;107082;1275;22533;-79
2023/05/12 09:57:28;;;;;;;11.00;4.20;;;;;;;;;;107014;1254;25531;-77
2023/05/12 10:00:02;;;;;;;10.20;4.20;;;;;;;;;;107031;1274;24169;-77
2023/05/12 10:02:33;;;;;;;10.10;4.60;;;;;;;;;;107059;1274;22520;-79
2023/05/12 10:05:01;;;;;;;12.30;4.40;;;;;;;;;;107147;1260;22641;-82
2023/05/12 10:07:28;;;;;;;10.30;4.40;;;;;;;;;;107130;1266;24947;-81
2023/05/12 10:09:58;;;;;;;9.10;3.70;;;;;;;;;;106965;1274;22518;-78
2023/05/12 10:12:24;;;;;;;9.70;4.10;;;;;;;;;;107241;1274;25390;-77
2023/05/12 10:14:52;;;;;;;8.70;3.80;;;;;;;;;;107090;1274;22582;-83
2023/05/12 10:17:19;;;;;;;9.70;4.50;;;;;;;;;;107130;1257;24195;-79
2023/05/12 10:19:47;;;;;;;11.00;4.80;;;;;;;;;;107114;1275;24345;-81
2023/05/12 10:22:14;;;;;;;11.80;4.60;;;;;;;;;;107111;1275;22511;-77
2023/05/12 10:24:41;;;;;;;9.00;3.90;;;;;;;;;;107152;1275;25261;-76
2023/05/12 10:27:08;;;;;;;20.10;9.00;;;;;;;;;;107144;1271;22762;-83
2023/05/12 10:29:36;;;;;;;9.30;4.50;;;;;;;;;;107073;1274;25313;-77
2023/05/12 10:32:03;;;;;;;9.70;4.40;;;;;;;;;;107106;1274;22483;-76
2023/05/12 10:34:34;;;;;;;9.90;4.10;;;;;;;;;;107124;1274;25277;-80
2023/05/12 10:37:03;;;;;;;15.60;4.00;;;;;;;;;;107081;1251;24225;-77
2023/05/12 10:39:31;;;;;;;13.90;4.10;;;;;;;;;;107181;1275;25233;-80
2023/05/12 10:42:05;;;;;;;11.30;4.20;;;;;;;;;;107157;1275;25435;-84
2023/05/12 10:44:31;;;;;;;9.20;3.50;;;;;;;;;;107151;1275;22575;-76
2023/05/12 10:46:58;;;;;;;10.40;3.80;;;;;;;;;;107095;1251;24224;-77
2023/05/12 10:49:33;;;;;;;8.90;3.90;;;;;;;;;;107231;1274;22548;-81
2023/05/12 10:52:00;;;;;;;9.40;3.50;;;;;;;;;;107104;1274;25282;-82
2023/05/12 10:54:27;;;;;;;7.70;3.80;;;;;;;;;;107076;1255;22607;-79
2023/05/12 10:56:57;;;;;;;14.20;4.70;;;;;;;;;;107098;1274;26442;-76
2023/05/12 10:59:25;;;;;;;12.10;4.60;;;;;;;;;;107165;1257;22554;-78
2023/05/12 11:02:05;;;;;;;17.00;3.70;;;;;;;;;;107212;1255;22530;-80
2023/05/12 11:04:45;;;;;;;9.00;3.30;;;;;;;;;;107144;1275;22521;-76
2023/05/12 11:07:13;;;;;;;11.70;4.40;;;;;;;;;;106886;1267;22500;-75
2023/05/12 11:09:42;;;;;;;7.80;3.50;;;;;;;;;;107025;1255;22520;-82
2023/05/12 11:12:10;;;;;;;8.40;3.20;;;;;;;;;;107074;1274;23129;-80
2023/05/12 11:14:37;;;;;;;8.70;3.60;;;;;;;;;;107150;1274;23903;-78
2023/05/12 11:17:04;;;;;;;11.30;3.80;;;;;;;;;;107123;1274;22544;-79
2023/05/12 11:19:31;;;;;;;10.60;3.60;;;;;;;;;;110667;1255;22109;-77
2023/05/12 11:22:08;;;;;;;8.00;3.40;;;;;;;;;;110518;1274;22906;-78
2023/05/12 11:24:36;;;;;;;10.40;3.30;;;;;;;;;;110701;1256;22460;-77
2023/05/12 11:27:03;;;;;;;13.30;4.10;;;;;;;;;;110555;1274;22223;-77
2023/05/12 11:29:30;;;;;;;10.90;3.90;;;;;;;;;;110740;1254;22828;-77
2023/05/12 11:31:59;;;;;;;10.40;3.70;;;;;;;;;;110625;1274;22182;-77
2023/05/12 11:34:26;;;;;;;9.20;3.10;;;;;;;;;;110603;1273;22679;-78
2023/05/12 11:36:53;;;;;;;13.70;3.10;;;;;;;;;;110587;1274;22458;-77
2023/05/12 11:39:24;;;;;;;9.20;3.10;;;;;;;;;;110656;1255;22132;-76
2023/05/12 11:41:51;;;;;;;7.80;3.00;;;;;;;;;;110510;1275;23756;-78
2023/05/12 11:44:21;;;;;;;9.50;3.20;;;;;;;;;;110594;1275;22213;-77
2023/05/12 11:46:55;;;;;;;7.40;2.90;;;;;;;;;;110484;1275;22994;-78
2023/05/12 11:49:23;;;;;;;7.00;3.20;;;;;;;;;;110591;1259;22875;-77
2023/05/12 11:51:53;;;;;;;6.10;3.00;;;;;;;;;;110679;1256;22157;-77
2023/05/12 11:54:19;;;;;;;7.50;2.40;;;;;;;;;;110649;1274;22520;-78
2023/05/12 11:56:50;;;;;;;7.20;3.20;;;;;;;;;;110614;1274;22096;-77
2023/05/12 11:59:29;;;;;;;7.80;2.70;;;;;;;;;;110825;1256;22612;-77
2023/05/12 12:01:57;;;;;;;14.40;3.30;;;;;;;;;;110767;1273;22865;-78
2023/05/12 12:04:34;;;;;;;10.50;2.90;;;;;;;;;;110697;1273;22166;-79
2023/05/12 12:07:01;;;;;;;7.80;3.40;;;;;;;;;;110680;1273;22748;-77
2023/05/12 12:09:31;;;;;;;7.90;3.20;;;;;;;;;;110965;1255;22312;-78
2023/05/12 12:11:59;;;;;;;7.70;3.00;;;;;;;;;;110648;1274;22940;-79
2023/05/12 12:14:25;;;;;;;6.70;3.00;;;;;;;;;;110655;1274;22119;-85
2023/05/12 12:16:52;;;;;;;7.40;2.40;;;;;;;;;;110629;1274;22103;-77
2023/05/12 12:19:19;;;;;;;6.70;2.50;;;;;;;;;;110825;1253;22144;-77
2023/05/12 12:21:45;;;;;;;4.60;2.20;;;;;;;;;;110683;1273;22848;-77
2023/05/12 12:24:12;;;;;;;7.10;2.60;;;;;;;;;;110769;1273;22107;-77
2023/05/12 12:26:39;;;;;;;5.80;2.60;;;;;;;;;;110749;1273;22149;-79
2023/05/12 12:29:06;;;;;;;7.60;2.70;;;;;;;;;;110700;1251;22169;-79
2023/05/12 12:31:33;;;;;;;6.00;2.50;;;;;;;;;;110508;1274;22078;-77
2023/05/12 12:33:59;;;;;;;7.10;2.80;;;;;;;;;;110625;1274;22073;-78
2023/05/12 12:36:26;;;;;;;6.00;2.40;;;;;;;;;;110619;1274;21953;-78
2023/05/12 12:38:53;;;;;;;7.60;2.40;;;;;;;;;;110594;1274;22144;-79
2023/05/12 12:41:20;;;;;;;6.60;2.50;;;;;;;;;;110737;1257;22135;-79
2023/05/12 12:43:47;;;;;;;7.60;2.40;;;;;;;;;;110640;1274;22768;-78
2023/05/12 12:46:14;;;;;;;8.50;2.60;;;;;;;;;;110605;1274;22097;-77
2023/05/12 12:48:41;;;;;;;7.70;2.40;;;;;;;;;;110664;1274;22313;-79
2023/05/12 12:51:07;;;;;;;8.50;2.40;;;;;;;;;;110995;1256;22295;-78
2023/05/12 12:53:35;;;;;;;6.30;2.40;;;;;;;;;;110564;1275;22815;-78
2023/05/12 12:56:02;;;;;;;7.60;2.30;;;;;;;;;;110620;1275;21981;-77
2023/05/12 12:58:29;;;;;;;5.40;2.40;;;;;;;;;;110626;1275;22097;-80
2023/05/12 13:00:56;;;;;;;5.50;2.30;;;;;;;;;;110996;1255;21756;-78
2023/05/12 13:03:23;;;;;;;4.70;2.00;;;;;;;;;;110639;1274;22910;-77
2023/05/12 13:05:50;;;;;;;11.50;2.30;;;;;;;;;;110640;1274;22104;-79
2023/05/12 13:08:17;;;;;;;8.40;3.00;;;;;;;;;;110642;1274;22098;-78
2023/05/12 13:10:44;;;;;;;8.50;3.20;;;;;;;;;;110783;1253;22231;-78
2023/05/12 13:13:11;;;;;;;10.80;3.00;;;;;;;;;;110613;1275;22088;-78
2023/05/12 13:15:38;;;;;;;9.30;3.20;;;;;;;;;;110554;1275;22140;-78
2023/05/12 13:18:05;;;;;;;5.90;2.50;;;;;;;;;;110540;1275;22821;-79
2023/05/12 13:20:32;;;;;;;6.80;2.50;;;;;;;;;;110742;1251;22150;-79
2023/05/12 13:22:59;;;;;;;8.60;2.80;;;;;;;;;;110647;1274;22097;-78
2023/05/12 13:25:26;;;;;;;10.50;4.70;;;;;;;;;;110675;1274;22610;-79
2023/05/12 13:27:52;;;;;;;14.70;5.60;;;;;;;;;;110644;1274;22314;-77
2023/05/12 13:30:21;;;;;;;18.40;10.10;;;;;;;;;;110645;1253;22172;-77
2023/05/12 13:32:48;;;;;;;10.30;4.60;;;;;;;;;;110665;1275;22379;-78
2023/05/12 13:35:15;;;;;;;9.60;3.60;;;;;;;;;;110623;1275;22724;-79
2023/05/12 13:37:42;;;;;;;9.90;3.70;;;;;;;;;;110603;1275;22273;-77
2023/05/12 13:40:09;;;;;;;8.90;2.90;;;;;;;;;;110610;1275;22788;-77
2023/05/12 13:42:39;;;;;;;10.10;3.20;;;;;;;;;;111161;1255;22120;-80
2023/05/12 13:45:07;;;;;;;6.60;3.00;;;;;;;;;;110654;1274;22940;-78
2023/05/12 13:47:34;;;;;;;7.30;2.80;;;;;;;;;;110625;1274;22753;-77
2023/05/12 13:50:01;;;;;;;6.20;3.00;;;;;;;;;;110637;1274;22031;-78
2023/05/12 13:52:32;;;;;;;8.50;4.10;;;;;;;;;;110997;1256;22307;-78
2023/05/12 13:54:59;;;;;;;8.40;3.50;;;;;;;;;;110635;1276;22157;-77
2023/05/12 13:57:26;;;;;;;11.10;5.60;;;;;;;;;;110631;1275;22215;-77
2023/05/12 13:59:59;;;;;;;10.10;4.30;;;;;;;;;;108322;1275;3037370;-77
2023/05/12 14:02:26;;;;;;;11.10;3.70;;;;;;;;;;110627;1255;22111;-77
2023/05/12 14:05:12;;;;;;;9.90;3.80;;;;;;;;;;110625;1274;22824;-77
2023/05/12 14:07:41;;;;;;;8.80;4.00;;;;;;;;;;110654;1274;22118;-78
2023/05/12 14:10:08;;;;;;;10.60;4.60;;;;;;;;;;110671;1274;22088;-78
2023/05/12 14:12:36;;;;;;;12.20;4.00;;;;;;;;;;110819;1258;22962;-77
2023/05/12 14:15:03;;;;;;;11.10;4.90;;;;;;;;;;110644;1276;22766;-78
2023/05/12 14:17:30;;;;;;;9.50;3.80;;;;;;;;;;110671;1272;22108;-77
2023/05/12 14:19:57;;;;;;;11.60;3.90;;;;;;;;;;110645;1275;22236;-77
2023/05/12 14:22:24;;;;;;;8.00;3.40;;;;;;;;;;110868;1257;22716;-78
2023/05/12 14:24:51;;;;;;;12.90;4.10;;;;;;;;;;110640;1274;22091;-78
2023/05/12 14:27:18;;;;;;;8.80;3.50;;;;;;;;;;110667;1274;22101;-77
2023/05/12 14:29:45;;;;;;;10.50;3.90;;;;;;;;;;110629;1274;22865;-77
2023/05/12 14:32:12;;;;;;;11.20;3.70;;;;;;;;;;110658;1258;22735;-77
2023/05/12 14:34:39;;;;;;;9.70;4.70;;;;;;;;;;110585;1275;22112;-77
2023/05/12 14:37:06;;;;;;;11.00;4.10;;;;;;;;;;110641;1275;22126;-77
2023/05/12 14:39:33;;;;;;;10.70;4.80;;;;;;;;;;110632;1276;22712;-77
2023/05/12 14:42:00;;;;;;;10.10;3.80;;;;;;;;;;110749;1255;22116;-81
2023/05/12 14:44:27;;;;;;;8.20;3.70;;;;;;;;;;110612;1275;23019;-77
2023/05/12 14:46:54;;;;;;;9.10;2.90;;;;;;;;;;110647;1274;22091;-77
2023/05/12 14:49:21;;;;;;;8.10;3.30;;;;;;;;;;110622;1274;22104;-78
2023/05/12 14:51:48;;;;;;;7.50;3.10;;;;;;;;;;110641;1254;22191;-76